createdAt,value
2019-04-26T00:00:34.623Z,20.90
2019-04-26T00:03:07.780Z,18.52
2019-04-26T00:05:38.662Z,18.15
2019-04-26T00:08:10.377Z,19.20
2019-04-26T00:10:49.498Z,18.82
2019-04-26T00:13:35.123Z,18.75
2019-04-26T00:16:18.901Z,19.35
2019-04-26T00:18:48.308Z,19.82
2019-04-26T00:21:18.333Z,17.92
2019-04-26T00:23:48.258Z,18.62
2019-04-26T00:26:18.420Z,19.60
2019-04-26T00:28:47.765Z,21.45
2019-04-26T00:31:17.261Z,19.92
2019-04-26T00:33:46.922Z,20.10
2019-04-26T00:36:16.658Z,19.42
2019-04-26T00:38:46.398Z,21.23
2019-04-26T00:41:16.644Z,20.00
2019-04-26T00:43:47.098Z,18.55
2019-04-26T00:46:18.857Z,19.67
2019-04-26T00:48:50.074Z,19.32
2019-04-26T00:51:19.724Z,20.57
2019-04-26T00:53:50.671Z,17.25
2019-04-26T00:56:20.649Z,20.80
2019-04-26T00:58:51.367Z,20.90
2019-04-26T01:01:22.849Z,19.98
2019-04-26T01:03:52.536Z,20.90
2019-04-26T01:06:23.825Z,19.82
2019-04-26T01:08:53.226Z,20.60
2019-04-26T01:11:22.574Z,19.65
2019-04-26T01:13:51.923Z,18.80
2019-04-26T01:16:22.162Z,19.45
2019-04-26T01:18:53.995Z,19.98
2019-04-26T01:21:26.901Z,20.02
2019-04-26T01:23:59.648Z,24.67
2019-04-26T01:26:33.554Z,27.25
2019-04-26T01:29:07.655Z,22.95
2019-04-26T01:31:42.854Z,21.48
2019-04-26T01:34:12.202Z,20.60
2019-04-26T01:36:42.659Z,21.07
2019-04-26T01:39:21.289Z,23.70
2019-04-26T01:42:17.505Z,21.87
2019-04-26T01:45:04.051Z,21.05
2019-04-26T01:47:33.891Z,20.90
2019-04-26T01:50:03.870Z,19.45
2019-04-26T01:52:33.288Z,19.37
2019-04-26T01:55:02.716Z,19.05
2019-04-26T01:57:33.168Z,20.55
2019-04-26T02:00:15.585Z,20.30
2019-04-26T02:02:57.974Z,21.23
2019-04-26T02:05:28.028Z,22.30
2019-04-26T02:07:58.046Z,22.15
2019-04-26T02:10:28.720Z,20.80
2019-04-26T02:13:00.051Z,20.15
2019-04-26T02:15:33.360Z,19.32
2019-04-26T02:18:04.919Z,19.07
2019-04-26T02:20:56.511Z,20.62
2019-04-26T02:23:34.620Z,20.05
2019-04-26T02:26:21.638Z,17.62
2019-04-26T02:28:51.490Z,21.25
2019-04-26T02:31:20.853Z,19.23
2019-04-26T02:33:51.371Z,18.15
2019-04-26T02:36:22.114Z,20.10
2019-04-26T02:38:54.159Z,21.35
2019-04-26T02:41:23.575Z,20.05
2019-04-26T02:43:56.027Z,19.15
2019-04-26T02:46:39.035Z,17.95
2019-04-26T02:49:24.462Z,19.48
2019-04-26T02:52:01.274Z,17.48
2019-04-26T02:54:45.794Z,18.23
2019-04-26T02:57:38.859Z,18.90
2019-04-26T03:00:12.929Z,20.20
2019-04-26T03:02:44.428Z,21.50
2019-04-26T03:05:14.762Z,21.00
2019-04-26T03:08:10.159Z,18.42
2019-04-26T03:10:45.190Z,19.12
2019-04-26T03:13:27.567Z,17.15
2019-04-26T03:16:10.168Z,18.57
2019-04-26T03:18:55.586Z,19.37
2019-04-26T03:21:34.526Z,18.50
2019-04-26T03:24:17.844Z,19.37
2019-04-26T03:27:20.645Z,17.62
2019-04-26T03:30:22.312Z,18.48
2019-04-26T03:33:25.784Z,18.85
2019-04-26T03:36:25.117Z,18.10
2019-04-26T03:39:08.069Z,18.42
2019-04-26T03:42:05.024Z,19.37
2019-04-26T03:44:53.643Z,19.20
2019-04-26T03:47:27.015Z,19.27
2019-04-26T03:50:25.197Z,17.30
2019-04-26T03:53:32.608Z,18.65
2019-04-26T03:56:24.984Z,17.30
2019-04-26T03:59:11.287Z,17.90
2019-04-26T04:01:50.760Z,17.37
2019-04-26T04:04:46.658Z,18.40
2019-04-26T04:07:35.670Z,18.17
2019-04-26T04:09:56.041Z,19.52
2019-04-26T04:12:36.215Z,18.40
2019-04-26T04:15:15.940Z,18.48
2019-04-26T04:17:55.180Z,19.20
2019-04-26T04:20:48.269Z,25.27
2019-04-26T04:23:30.947Z,26.65
2019-04-26T04:26:03.364Z,25.40
2019-04-26T04:28:44.530Z,22.90
2019-04-26T04:31:23.837Z,21.12
2019-04-26T04:34:13.444Z,20.17
2019-04-26T04:36:51.549Z,19.73
2019-04-26T04:39:35.403Z,20.52
2019-04-26T04:42:50.476Z,20.43
2019-04-26T04:46:04.324Z,19.27
2019-04-26T04:49:09.473Z,20.15
2019-04-26T04:52:17.139Z,17.77
2019-04-26T04:55:06.355Z,17.73
2019-04-26T04:57:50.439Z,18.27
2019-04-26T05:00:58.804Z,25.88
2019-04-26T05:03:42.356Z,29.77
2019-04-26T05:06:49.834Z,19.40
2019-04-26T05:09:34.385Z,19.05
2019-04-26T05:12:15.195Z,18.45
2019-04-26T05:15:15.897Z,18.07
2019-04-26T05:18:22.027Z,18.98
2019-04-26T05:21:25.409Z,19.90
2019-04-26T05:24:35.770Z,17.40
2019-04-26T05:27:34.003Z,17.40
2019-04-26T05:30:40.730Z,17.30
2019-04-26T05:33:36.670Z,18.27
2019-04-26T05:36:31.867Z,17.48
2019-04-26T05:39:09.968Z,18.30
2019-04-26T05:42:38.040Z,16.05
2019-04-26T05:45:59.263Z,16.27
2019-04-26T05:48:55.859Z,17.15
2019-04-26T05:52:18.817Z,16.80
2019-04-26T05:55:33.379Z,15.65
2019-04-26T05:58:43.866Z,15.68
2019-04-26T06:02:20.569Z,16.00
2019-04-26T06:05:23.066Z,16.77
2019-04-26T06:08:10.321Z,16.17
2019-04-26T06:10:50.059Z,15.95
2019-04-26T06:13:45.624Z,15.10
2019-04-26T06:16:32.943Z,17.30
2019-04-26T06:19:49.241Z,15.53
2019-04-26T06:22:35.439Z,16.65
2019-04-26T06:25:55.590Z,16.40
2019-04-26T06:29:01.063Z,16.80
2019-04-26T06:31:38.581Z,16.25
2019-04-26T06:34:20.199Z,15.08
2019-04-26T06:37:06.017Z,15.08
2019-04-26T06:39:45.402Z,15.00
2019-04-26T06:43:02.831Z,15.18
2019-04-26T06:46:47.507Z,14.90
2019-04-26T06:49:53.060Z,17.62
2019-04-26T06:52:26.360Z,14.70
2019-04-26T06:55:06.794Z,16.70
2019-04-26T06:58:18.308Z,15.95
2019-04-26T07:01:14.467Z,15.35
2019-04-26T07:04:16.856Z,15.13
2019-04-26T07:07:11.596Z,15.03
2019-04-26T07:10:31.376Z,14.10
2019-04-26T07:13:34.228Z,14.63
2019-04-26T07:16:23.427Z,14.35
2019-04-26T07:19:20.046Z,16.75
2019-04-26T07:22:35.487Z,15.28
2019-04-26T07:25:26.892Z,13.62
2019-04-26T07:28:39.946Z,14.23
2019-04-26T07:31:22.437Z,13.68
2019-04-26T07:34:30.771Z,15.05
2019-04-26T07:37:39.722Z,19.15
2019-04-26T07:40:53.550Z,24.85
2019-04-26T07:44:02.767Z,14.83
2019-04-26T07:47:18.707Z,17.65
2019-04-26T07:50:24.979Z,14.87
2019-04-26T07:53:11.267Z,14.23
2019-04-26T07:55:54.379Z,12.15
2019-04-26T07:59:29.110Z,10.23
2019-04-26T08:02:27.535Z,10.28
2019-04-26T08:05:05.580Z,10.45
2019-04-26T08:07:40.876Z,9.40
2019-04-26T08:10:17.319Z,9.05
2019-04-26T08:12:57.523Z,6.95
2019-04-26T08:16:04.906Z,9.30
2019-04-26T08:18:57.018Z,8.73
2019-04-26T08:21:32.023Z,8.20
2019-04-26T08:24:27.855Z,9.68
2019-04-26T08:27:18.669Z,8.48
2019-04-26T08:29:46.078Z,9.00
2019-04-26T08:32:28.191Z,8.10
2019-04-26T08:35:08.116Z,7.83
2019-04-26T08:37:46.365Z,8.15
2019-04-26T08:40:26.547Z,9.28
2019-04-26T08:42:59.310Z,9.63
2019-04-26T08:45:40.495Z,9.63
2019-04-26T08:48:37.252Z,8.35
2019-04-26T08:51:16.438Z,7.37
2019-04-26T08:53:44.636Z,8.08
2019-04-26T08:56:17.247Z,7.85
2019-04-26T08:58:49.529Z,7.72
2019-04-26T09:01:59.434Z,8.28
2019-04-26T09:04:39.642Z,8.43
2019-04-26T09:07:16.122Z,11.90
2019-04-26T09:09:57.159Z,10.30
2019-04-26T09:12:23.665Z,7.97
2019-04-26T09:14:55.593Z,8.10
2019-04-26T09:17:27.722Z,9.15
2019-04-26T09:19:58.127Z,8.18
2019-04-26T09:22:56.596Z,9.03
2019-04-26T09:25:34.569Z,8.00
2019-04-26T09:28:24.090Z,7.92
2019-04-26T09:31:01.515Z,7.95
2019-04-26T09:33:53.160Z,8.80
2019-04-26T09:36:22.503Z,7.75
2019-04-26T09:38:51.847Z,8.25
2019-04-26T09:41:21.227Z,8.30
2019-04-26T09:44:04.986Z,9.00
2019-04-26T09:46:52.750Z,10.03
2019-04-26T09:49:37.327Z,7.60
2019-04-26T09:52:10.779Z,11.75
2019-04-26T09:54:40.122Z,6.78
2019-04-26T09:57:09.549Z,7.17
2019-04-26T09:59:39.945Z,6.87
2019-04-26T10:02:10.866Z,6.10
2019-04-26T10:04:40.226Z,5.87
2019-04-26T10:07:09.639Z,6.70
2019-04-26T10:09:38.984Z,7.92
2019-04-26T10:12:16.545Z,7.33
2019-04-26T10:14:54.345Z,7.97
2019-04-26T10:17:33.427Z,7.97
2019-04-26T10:20:02.776Z,6.85
2019-04-26T10:22:32.902Z,8.20
2019-04-26T10:25:07.082Z,6.42
2019-04-26T10:27:36.406Z,6.97
2019-04-26T10:30:09.178Z,7.30
2019-04-26T10:32:37.651Z,6.97
2019-04-26T10:35:07.579Z,7.45
2019-04-26T10:37:39.765Z,6.67
2019-04-26T10:40:07.999Z,6.83
2019-04-26T10:42:37.415Z,5.95
2019-04-26T10:45:10.417Z,6.55
2019-04-26T10:47:40.494Z,5.90
2019-04-26T10:50:11.583Z,5.60
2019-04-26T10:53:05.834Z,5.47
2019-04-26T10:55:52.683Z,6.53
2019-04-26T10:58:31.923Z,6.83
2019-04-26T11:01:04.347Z,6.93
2019-04-26T11:03:35.049Z,8.13
2019-04-26T11:06:04.818Z,6.03
2019-04-26T11:08:34.154Z,6.70
2019-04-26T11:11:03.586Z,6.37
2019-04-26T11:13:32.945Z,6.03
2019-04-26T11:16:06.629Z,6.30
2019-04-26T11:18:33.418Z,8.07
2019-04-26T11:21:02.767Z,6.37
2019-04-26T11:23:32.139Z,6.50
2019-04-26T11:26:02.875Z,7.43
2019-04-26T11:28:32.456Z,6.07
2019-04-26T11:31:01.796Z,6.07
2019-04-26T11:33:31.139Z,6.83
2019-04-26T11:36:03.412Z,5.50
2019-04-26T11:38:32.692Z,5.20
2019-04-26T11:41:06.141Z,5.27
2019-04-26T11:43:33.448Z,5.87
2019-04-26T11:46:04.645Z,6.13
2019-04-26T11:48:33.847Z,6.47
2019-04-26T11:51:03.185Z,6.67
2019-04-26T11:53:33.553Z,6.10
2019-04-26T11:56:04.563Z,6.00
2019-04-26T11:58:34.484Z,6.47
2019-04-26T12:01:05.414Z,7.10
2019-04-26T12:03:34.770Z,6.23
2019-04-26T12:06:10.313Z,6.77
2019-04-26T12:08:45.839Z,6.37
2019-04-26T12:11:18.619Z,5.93
2019-04-26T12:13:46.250Z,5.43
2019-04-26T12:16:18.885Z,5.90
2019-04-26T12:18:46.656Z,6.47
2019-04-26T12:21:16.063Z,6.70
2019-04-26T12:23:45.403Z,5.73
2019-04-26T12:26:17.317Z,7.17
2019-04-26T12:28:45.847Z,5.80
2019-04-26T12:31:15.339Z,6.40
2019-04-26T12:33:45.203Z,5.63
2019-04-26T12:36:15.258Z,7.10
2019-04-26T12:38:44.603Z,6.00
2019-04-26T12:41:17.177Z,6.40
2019-04-26T12:43:45.006Z,6.80
2019-04-26T12:46:33.283Z,12.10
2019-04-26T12:49:02.618Z,9.10
2019-04-26T12:51:31.949Z,8.23
2019-04-26T12:54:03.644Z,7.00
2019-04-26T12:56:32.803Z,7.93
2019-04-26T12:59:02.477Z,7.53
2019-04-26T13:01:31.839Z,5.60
2019-04-26T13:04:05.471Z,6.37
2019-04-26T13:06:38.798Z,6.50
2019-04-26T13:09:15.621Z,5.27
2019-04-26T13:12:06.998Z,6.80
2019-04-26T13:14:54.887Z,6.63
2019-04-26T13:17:31.333Z,7.70
2019-04-26T13:20:00.767Z,7.27
2019-04-26T13:22:32.019Z,7.70
2019-04-26T13:25:01.237Z,6.93
2019-04-26T13:27:30.627Z,7.20
2019-04-26T13:30:02.601Z,8.53
2019-04-26T13:32:31.278Z,7.97
2019-04-26T13:35:00.611Z,7.23
2019-04-26T13:37:32.206Z,7.10
2019-04-26T13:40:01.033Z,8.00
2019-04-26T13:42:30.442Z,7.93
2019-04-26T13:45:10.996Z,7.97
2019-04-26T13:47:53.807Z,8.83
2019-04-26T13:50:34.255Z,8.77
2019-04-26T13:53:03.894Z,10.10
2019-04-26T13:55:33.836Z,7.40
2019-04-26T13:58:03.530Z,8.10
2019-04-26T14:00:33.458Z,7.83
2019-04-26T14:03:02.794Z,7.63
2019-04-26T14:05:32.142Z,8.27
2019-04-26T14:08:01.487Z,9.47
2019-04-26T14:10:31.031Z,7.87
2019-04-26T14:13:00.363Z,7.37
2019-04-26T14:15:30.407Z,8.23
2019-04-26T14:18:00.213Z,8.27
2019-04-26T14:20:31.111Z,8.10
2019-04-26T14:23:37.411Z,7.00
2019-04-26T14:26:09.497Z,8.63
2019-04-26T14:28:41.805Z,8.27
2019-04-26T14:31:12.267Z,8.10
2019-04-26T14:33:41.580Z,8.40
2019-04-26T14:36:17.488Z,7.60
2019-04-26T14:38:41.987Z,8.37
2019-04-26T14:41:13.282Z,7.70
2019-04-26T14:43:42.406Z,8.00
2019-04-26T14:46:14.484Z,7.43
2019-04-26T14:48:44.774Z,7.00
2019-04-26T14:51:16.752Z,7.83
2019-04-26T14:53:45.045Z,7.40
2019-04-26T14:56:14.391Z,6.77
2019-04-26T14:58:43.725Z,7.23
2019-04-26T15:01:20.955Z,7.50
2019-04-26T15:04:09.468Z,7.60
2019-04-26T15:06:42.382Z,8.10
2019-04-26T15:09:19.447Z,7.80
2019-04-26T15:11:53.428Z,7.50
2019-04-26T15:14:19.349Z,7.70
2019-04-26T15:16:46.051Z,7.40
2019-04-26T15:19:15.811Z,7.53
2019-04-26T15:21:45.150Z,7.37
2019-04-26T15:24:14.501Z,8.70
2019-04-26T15:26:44.074Z,8.90
2019-04-26T15:29:13.423Z,8.37
2019-04-26T15:31:42.758Z,7.87
2019-04-26T15:34:12.227Z,8.27
2019-04-26T15:36:43.442Z,7.93
2019-04-26T15:39:23.205Z,8.47
2019-04-26T15:42:29.294Z,7.60
2019-04-26T15:45:13.919Z,8.40
2019-04-26T15:47:58.041Z,8.30
2019-04-26T15:50:33.740Z,7.63
2019-04-26T15:53:06.605Z,7.30
2019-04-26T15:55:39.995Z,8.70
2019-04-26T15:58:08.336Z,8.37
2019-04-26T16:00:36.792Z,7.90
2019-04-26T16:03:07.504Z,8.40
2019-04-26T16:05:37.659Z,8.25
2019-04-26T16:08:07.077Z,9.15
2019-04-26T16:10:38.357Z,9.55
2019-04-26T16:13:17.969Z,8.50
2019-04-26T16:15:38.642Z,8.88
2019-04-26T16:18:10.719Z,8.90
2019-04-26T16:20:42.278Z,15.28
2019-04-26T16:23:13.118Z,11.43
2019-04-26T16:25:42.856Z,9.23
2019-04-26T16:28:31.033Z,9.35
2019-04-26T16:31:13.848Z,10.30
2019-04-26T16:33:44.828Z,9.00
2019-04-26T16:36:14.418Z,10.20
2019-04-26T16:38:44.056Z,10.63
2019-04-26T16:41:13.401Z,10.00
2019-04-26T16:43:50.839Z,9.65
2019-04-26T16:46:20.049Z,11.15
2019-04-26T16:48:44.847Z,10.00
2019-04-26T16:51:14.413Z,11.28
2019-04-26T16:54:02.543Z,11.45
2019-04-26T16:56:15.430Z,10.23
2019-04-26T16:58:45.319Z,18.80
2019-04-26T17:01:15.387Z,15.65
2019-04-26T17:03:48.039Z,18.17
2019-04-26T17:06:15.991Z,19.15
2019-04-26T17:08:49.901Z,16.35
2019-04-26T17:11:16.478Z,16.40
2019-04-26T17:13:51.281Z,15.63
2019-04-26T17:16:16.894Z,19.60
2019-04-26T17:18:46.299Z,11.93
2019-04-26T17:21:17.505Z,13.08
2019-04-26T17:24:13.118Z,15.35
2019-04-26T17:26:51.734Z,14.10
2019-04-26T17:29:21.070Z,11.55
2019-04-26T17:31:52.126Z,11.30
2019-04-26T17:34:23.551Z,12.80
2019-04-26T17:36:52.566Z,11.00
2019-04-26T17:39:22.614Z,11.25
2019-04-26T17:41:54.254Z,10.15
2019-04-26T17:44:26.713Z,10.95
2019-04-26T17:46:57.129Z,10.78
2019-04-26T17:49:27.324Z,10.65
2019-04-26T17:51:58.147Z,11.18
2019-04-26T17:54:43.797Z,10.78
2019-04-26T17:56:58.942Z,10.38
2019-04-26T17:59:33.757Z,11.33
2019-04-26T18:02:01.190Z,12.50
2019-04-26T18:04:36.029Z,11.20
2019-04-26T18:07:05.532Z,10.60
2019-04-26T18:09:45.842Z,11.75
2019-04-26T18:12:05.005Z,11.57
2019-04-26T18:14:34.342Z,12.10
2019-04-26T18:17:10.638Z,12.73
2019-04-26T18:20:07.972Z,12.43
2019-04-26T18:22:51.683Z,12.95
2019-04-26T18:25:21.031Z,11.70
2019-04-26T18:27:50.415Z,13.10
2019-04-26T18:30:20.318Z,12.75
2019-04-26T18:32:49.729Z,14.28
2019-04-26T18:35:19.150Z,13.22
2019-04-26T18:37:48.488Z,12.13
2019-04-26T18:40:20.607Z,12.33
2019-04-26T18:42:49.295Z,13.28
2019-04-26T18:45:25.897Z,13.38
2019-04-26T18:47:49.688Z,12.23
2019-04-26T18:50:19.031Z,14.30
2019-04-26T18:53:07.304Z,12.78
2019-04-26T18:55:36.674Z,12.05
2019-04-26T18:58:06.019Z,13.83
2019-04-26T19:00:38.304Z,13.20
2019-04-26T19:03:07.649Z,15.85
2019-04-26T19:05:36.987Z,12.13
2019-04-26T19:08:07.584Z,14.58
2019-04-26T19:10:37.387Z,11.70
2019-04-26T19:13:18.377Z,15.40
2019-04-26T19:15:56.499Z,20.50
2019-04-26T19:18:56.863Z,16.00
2019-04-26T19:21:38.947Z,17.85
2019-04-26T19:24:11.541Z,14.45
2019-04-26T19:26:36.418Z,14.85
2019-04-26T19:29:15.613Z,11.90
2019-04-26T19:31:36.937Z,15.30
2019-04-26T19:34:06.671Z,12.98
2019-04-26T19:36:36.008Z,12.30
2019-04-26T19:39:07.654Z,13.28
2019-04-26T19:41:37.003Z,11.12
2019-04-26T19:44:06.348Z,14.78
2019-04-26T19:47:03.255Z,13.40
2019-04-26T19:49:54.087Z,13.13
2019-04-26T19:52:45.015Z,18.07
2019-04-26T19:55:22.598Z,29.55
2019-04-26T19:58:20.545Z,23.22
2019-04-26T20:00:48.951Z,16.10
2019-04-26T20:03:18.299Z,16.42
2019-04-26T20:05:47.666Z,22.27
2019-04-26T20:08:16.995Z,17.65
2019-04-26T20:10:46.335Z,16.00
2019-04-26T20:13:16.725Z,15.70
2019-04-26T20:15:46.191Z,14.38
2019-04-26T20:18:17.448Z,15.23
2019-04-26T20:20:46.706Z,16.60
2019-04-26T20:23:16.116Z,15.03
2019-04-26T20:25:45.467Z,12.45
2019-04-26T20:28:14.814Z,15.30
2019-04-26T20:31:08.987Z,13.32
2019-04-26T20:33:39.182Z,12.05
2019-04-26T20:36:08.534Z,12.68
2019-04-26T20:38:43.715Z,12.85
2019-04-26T20:41:08.988Z,12.53
2019-04-26T20:43:45.613Z,13.58
2019-04-26T20:46:14.900Z,12.70
2019-04-26T20:48:42.503Z,13.38
2019-04-26T20:51:12.113Z,13.28
2019-04-26T20:53:43.832Z,13.18
2019-04-26T20:56:18.272Z,12.68
2019-04-26T20:58:47.063Z,13.60
2019-04-26T21:01:16.010Z,13.03
2019-04-26T21:03:46.220Z,13.45
2019-04-26T21:06:15.960Z,12.20
2019-04-26T21:08:45.422Z,12.53
2019-04-26T21:11:15.038Z,12.68
2019-04-26T21:13:44.379Z,13.13
2019-04-26T21:16:15.422Z,13.10
2019-04-26T21:18:45.154Z,14.15
2019-04-26T21:21:16.235Z,12.35
2019-04-26T21:23:47.206Z,11.97
2019-04-26T21:26:54.264Z,13.53
2019-04-26T21:29:41.676Z,13.15
2019-04-26T21:32:20.349Z,12.50
2019-04-26T21:34:51.079Z,12.15
2019-04-26T21:37:44.215Z,12.25
2019-04-26T21:40:26.249Z,10.70
2019-04-26T21:42:59.528Z,12.55
2019-04-26T21:45:30.726Z,12.82
2019-04-26T21:47:58.042Z,12.03
2019-04-26T21:50:29.116Z,11.78
2019-04-26T21:52:58.571Z,10.75
2019-04-26T21:55:35.253Z,12.90
2019-04-26T21:58:00.595Z,11.22
2019-04-26T22:00:53.935Z,12.13
2019-04-26T22:03:23.384Z,11.95
2019-04-26T22:05:54.076Z,12.37
2019-04-26T22:08:27.574Z,13.25
2019-04-26T22:10:56.987Z,11.50
2019-04-26T22:13:33.388Z,12.70
2019-04-26T22:16:30.642Z,11.97
2019-04-26T22:19:18.073Z,12.63
2019-04-26T22:22:06.880Z,13.80
2019-04-26T22:24:38.178Z,12.10
2019-04-26T22:27:07.571Z,12.07
2019-04-26T22:29:36.925Z,10.75
2019-04-26T22:32:06.682Z,10.88
2019-04-26T22:34:37.289Z,13.43
2019-04-26T22:37:11.320Z,12.28
2019-04-26T22:39:40.003Z,12.45
2019-04-26T22:42:10.395Z,12.10
2019-04-26T22:44:48.299Z,12.88
2019-04-26T22:47:28.655Z,12.00
2019-04-26T22:49:58.077Z,12.33
2019-04-26T22:52:27.494Z,12.85
2019-04-26T22:54:56.847Z,11.68
2019-04-26T22:57:26.268Z,13.28
2019-04-26T22:59:55.687Z,14.80
2019-04-26T23:02:27.642Z,45.05
2019-04-26T23:05:00.689Z,19.52
2019-04-26T23:07:28.407Z,15.38
2019-04-26T23:09:57.828Z,14.28
2019-04-26T23:12:34.764Z,14.25
2019-04-26T23:15:35.825Z,16.67
2019-04-26T23:18:38.809Z,12.40
2019-04-26T23:21:28.034Z,11.50
2019-04-26T23:23:57.380Z,11.60
2019-04-26T23:26:26.721Z,12.75
2019-04-26T23:28:56.118Z,12.18
2019-04-26T23:31:25.758Z,10.63
2019-04-26T23:33:55.099Z,14.33
2019-04-26T23:36:24.513Z,23.35
2019-04-26T23:38:53.888Z,32.60
2019-04-26T23:41:23.679Z,22.13
2019-04-26T23:43:56.805Z,14.65
2019-04-26T23:46:25.994Z,18.02
2019-04-26T23:48:55.514Z,16.32
2019-04-26T23:51:26.212Z,15.50
2019-04-26T23:53:57.810Z,18.65
2019-04-26T23:56:26.825Z,13.75
2019-04-26T23:58:56.178Z,11.60
